createdAt,value
2018-05-27T00:00:20.599Z,0
2018-05-27T00:01:29.462Z,0
2018-05-27T00:02:38.606Z,0
2018-05-27T00:03:47.468Z,0
2018-05-27T00:04:56.337Z,0
2018-05-27T00:06:05.197Z,0
2018-05-27T00:07:14.334Z,0
2018-05-27T00:08:23.473Z,0
2018-05-27T00:09:32.338Z,0
2018-05-27T00:10:41.198Z,0
2018-05-27T00:11:50.064Z,0
2018-05-27T00:12:58.928Z,0
2018-05-27T00:14:07.790Z,0
2018-05-27T00:15:16.928Z,0
2018-05-27T00:16:25.791Z,0
2018-05-27T00:17:34.656Z,0
2018-05-27T00:18:43.799Z,0
2018-05-27T00:19:52.668Z,0
2018-05-27T00:21:01.810Z,0
2018-05-27T00:22:10.680Z,0
2018-05-27T00:23:19.830Z,0
2018-05-27T00:24:28.696Z,0
2018-05-27T00:25:37.560Z,0
2018-05-27T00:26:46.423Z,0
2018-05-27T00:27:55.284Z,0
2018-05-27T00:29:04.148Z,0
2018-05-27T00:30:13.012Z,0
2018-05-27T00:31:21.874Z,0
2018-05-27T00:32:30.763Z,0
2018-05-27T00:33:39.612Z,0
2018-05-27T00:34:48.522Z,0
2018-05-27T00:35:57.387Z,0
2018-05-27T00:37:06.251Z,0
2018-05-27T00:38:15.113Z,0
2018-05-27T00:39:23.980Z,0
2018-05-27T00:40:32.843Z,0
2018-05-27T00:41:41.705Z,0
2018-05-27T00:42:50.571Z,0
2018-05-27T00:43:59.432Z,0
2018-05-27T00:45:08.294Z,0
2018-05-27T00:46:17.432Z,0
2018-05-27T00:47:26.293Z,0
2018-05-27T00:48:35.153Z,0
2018-05-27T00:49:44.303Z,0
2018-05-27T00:50:53.454Z,0
2018-05-27T00:52:02.591Z,0
2018-05-27T00:53:11.455Z,0
2018-05-27T00:54:20.318Z,0
2018-05-27T00:55:29.182Z,0
2018-05-27T00:56:38.326Z,0
2018-05-27T00:57:47.474Z,0
2018-05-27T00:58:56.337Z,0
2018-05-27T01:00:05.208Z,0
2018-05-27T01:01:14.068Z,0
2018-05-27T01:02:22.936Z,0
2018-05-27T01:03:31.799Z,0
2018-05-27T01:04:40.658Z,0
2018-05-27T01:05:49.799Z,0
2018-05-27T01:06:58.663Z,0
2018-05-27T01:08:07.526Z,0
2018-05-27T01:09:16.720Z,0
2018-05-27T01:10:25.587Z,0
2018-05-27T01:11:34.734Z,0
2018-05-27T01:12:43.593Z,0
2018-05-27T01:13:52.738Z,0
2018-05-27T01:15:01.607Z,0
2018-05-27T01:16:10.755Z,0
2018-05-27T01:17:19.897Z,0
2018-05-27T01:18:29.044Z,0
2018-05-27T01:19:37.907Z,0
2018-05-27T01:20:46.772Z,0
2018-05-27T01:21:55.642Z,0
2018-05-27T01:23:04.501Z,0
2018-05-27T01:24:13.363Z,0
2018-05-27T01:25:22.226Z,0
2018-05-27T01:26:31.141Z,0
2018-05-27T01:27:40.004Z,0
2018-05-27T01:28:48.868Z,0
2018-05-27T01:29:57.731Z,0
2018-05-27T01:31:06.876Z,0
2018-05-27T01:32:15.733Z,0
2018-05-27T01:33:24.877Z,0
2018-05-27T01:34:33.787Z,0
2018-05-27T01:35:42.601Z,0
2018-05-27T01:36:51.464Z,0
2018-05-27T01:38:00.327Z,0
2018-05-27T01:39:09.753Z,0
2018-05-27T01:40:18.617Z,0
2018-05-27T01:41:27.756Z,0
2018-05-27T01:42:36.619Z,0
2018-05-27T01:43:45.478Z,0
2018-05-27T01:44:54.341Z,0
2018-05-27T01:46:03.204Z,0
2018-05-27T01:47:12.067Z,0
2018-05-27T01:48:20.930Z,0
2018-05-27T01:49:29.795Z,0
2018-05-27T01:50:38.661Z,0
2018-05-27T01:51:47.522Z,0
2018-05-27T01:52:56.671Z,0
2018-05-27T01:54:06.097Z,0
2018-05-27T01:55:14.956Z,0
2018-05-27T01:56:24.102Z,0
2018-05-27T01:57:32.961Z,0
2018-05-27T01:58:41.825Z,0
2018-05-27T01:59:50.690Z,0
2018-05-27T02:00:59.881Z,0
2018-05-27T02:02:08.745Z,0
2018-05-27T02:03:17.610Z,0
2018-05-27T02:04:26.751Z,0
2018-05-27T02:05:35.611Z,0
2018-05-27T02:06:44.476Z,0
2018-05-27T02:07:53.337Z,0
2018-05-27T02:09:02.197Z,0
2018-05-27T02:10:11.062Z,0
2018-05-27T02:11:19.934Z,0
2018-05-27T02:12:29.395Z,0
2018-05-27T02:13:38.256Z,0
2018-05-27T02:14:47.396Z,0
2018-05-27T02:15:56.262Z,0
2018-05-27T02:17:05.124Z,0
2018-05-27T02:18:14.036Z,0
2018-05-27T02:19:23.186Z,0
2018-05-27T02:20:32.045Z,0
2018-05-27T02:21:40.909Z,0
2018-05-27T02:22:49.773Z,0
2018-05-27T02:23:58.634Z,0
2018-05-27T02:25:07.497Z,0
2018-05-27T02:26:16.361Z,0
2018-05-27T02:27:25.555Z,0
2018-05-27T02:28:34.420Z,0
2018-05-27T02:29:43.283Z,0
2018-05-27T02:30:52.428Z,0
2018-05-27T02:32:01.840Z,0
2018-05-27T02:33:10.987Z,0
2018-05-27T02:34:20.407Z,4
2018-05-27T02:35:29.550Z,4
2018-05-27T02:36:38.695Z,4
2018-05-27T02:37:47.556Z,0
2018-05-27T02:38:56.997Z,4
2018-05-27T02:40:06.155Z,4
2018-05-27T02:41:15.298Z,8
2018-05-27T02:42:24.160Z,4
2018-05-27T02:43:33.026Z,8
2018-05-27T02:44:41.888Z,4
2018-05-27T02:45:50.750Z,8
2018-05-27T02:47:00.176Z,8
2018-05-27T02:48:09.322Z,8
2018-05-27T02:49:18.737Z,16
2018-05-27T02:50:27.600Z,16
2018-05-27T02:51:36.942Z,16
2018-05-27T02:52:45.857Z,20
2018-05-27T02:53:54.720Z,20
2018-05-27T02:55:03.586Z,24
2018-05-27T02:56:12.726Z,28
2018-05-27T02:57:21.876Z,32
2018-05-27T02:58:31.014Z,36
2018-05-27T02:59:40.158Z,40
2018-05-27T03:00:49.305Z,48
2018-05-27T03:01:58.807Z,52
2018-05-27T03:03:07.961Z,56
2018-05-27T03:04:17.113Z,64
2018-05-27T03:05:26.270Z,68
2018-05-27T03:06:35.424Z,76
2018-05-27T03:07:44.561Z,84
2018-05-27T03:08:53.427Z,92
2018-05-27T03:10:02.349Z,100
2018-05-27T03:11:12.044Z,112
2018-05-27T03:12:20.908Z,120
2018-05-27T03:13:30.049Z,136
2018-05-27T03:14:38.919Z,148
2018-05-27T03:15:47.778Z,156
2018-05-27T03:16:56.652Z,172
2018-05-27T03:18:06.120Z,184
2018-05-27T03:19:14.982Z,196
2018-05-27T03:20:23.843Z,204
2018-05-27T03:21:32.704Z,216
2018-05-27T03:22:41.847Z,232
2018-05-27T03:23:51.034Z,244
2018-05-27T03:24:59.897Z,256
2018-05-27T03:26:08.759Z,272
2018-05-27T03:27:17.672Z,284
2018-05-27T03:28:26.815Z,304
2018-05-27T03:29:35.678Z,320
2018-05-27T03:30:44.548Z,336
2018-05-27T03:31:53.981Z,344
2018-05-27T03:33:03.395Z,360
2018-05-27T03:34:12.259Z,372
2018-05-27T03:35:21.122Z,392
2018-05-27T03:36:30.263Z,404
2018-05-27T03:37:39.128Z,424
2018-05-27T03:38:47.990Z,444
2018-05-27T03:39:56.851Z,460
2018-05-27T03:41:05.724Z,476
2018-05-27T03:42:14.585Z,500
2018-05-27T03:43:23.452Z,516
2018-05-27T03:44:32.638Z,532
2018-05-27T03:45:41.503Z,544
2018-05-27T03:46:50.366Z,556
2018-05-27T03:47:59.507Z,576
2018-05-27T03:49:08.372Z,584
2018-05-27T03:50:17.237Z,596
2018-05-27T03:51:26.102Z,604
2018-05-27T03:52:34.964Z,612
2018-05-27T03:53:43.830Z,624
2018-05-27T03:54:52.688Z,636
2018-05-27T03:56:01.827Z,656
2018-05-27T03:57:10.691Z,672
2018-05-27T03:58:19.553Z,688
2018-05-27T03:59:28.416Z,704
2018-05-27T04:00:37.279Z,712
2018-05-27T04:01:46.194Z,736
2018-05-27T04:02:55.061Z,756
2018-05-27T04:04:04.207Z,780
2018-05-27T04:05:13.640Z,796
2018-05-27T04:06:22.505Z,824
2018-05-27T04:07:31.928Z,848
2018-05-27T04:08:41.072Z,876
2018-05-27T04:09:50.208Z,904
2018-05-27T04:10:59.072Z,920
2018-05-27T04:12:07.936Z,940
2018-05-27T04:13:16.796Z,956
2018-05-27T04:14:25.657Z,976
2018-05-27T04:15:34.802Z,988
2018-05-27T04:16:43.666Z,1004
2018-05-27T04:17:52.530Z,1024
2018-05-27T04:19:01.441Z,1052
2018-05-27T04:20:10.303Z,1084
2018-05-27T04:21:19.167Z,1108
2018-05-27T04:22:28.132Z,1132
2018-05-27T04:23:36.990Z,1148
2018-05-27T04:24:46.128Z,1156
2018-05-27T04:25:54.991Z,1176
2018-05-27T04:27:03.853Z,1184
2018-05-27T04:28:12.721Z,1176
2018-05-27T04:29:21.584Z,1216
2018-05-27T04:30:30.449Z,1228
2018-05-27T04:31:39.869Z,1252
2018-05-27T04:32:49.013Z,1284
2018-05-27T04:33:57.874Z,1288
2018-05-27T04:35:06.737Z,1312
2018-05-27T04:36:15.645Z,1324
2018-05-27T04:37:24.508Z,1324
2018-05-27T04:38:33.370Z,1316
2018-05-27T04:39:42.231Z,1324
2018-05-27T04:40:51.092Z,1320
2018-05-27T04:42:00.233Z,1296
2018-05-27T04:43:09.376Z,1284
2018-05-27T04:44:18.236Z,1272
2018-05-27T04:45:27.101Z,1288
2018-05-27T04:46:35.962Z,1268
2018-05-27T04:47:44.826Z,1252
2018-05-27T04:48:53.686Z,1244
2018-05-27T04:50:02.549Z,1244
2018-05-27T04:51:11.408Z,1228
2018-05-27T04:52:20.270Z,1252
2018-05-27T04:53:29.134Z,1316
2018-05-27T04:54:37.996Z,1332
2018-05-27T04:55:46.878Z,1360
2018-05-27T04:56:55.740Z,1368
2018-05-27T04:58:04.607Z,1380
2018-05-27T04:59:13.751Z,1380
2018-05-27T05:00:22.608Z,1388
2018-05-27T05:01:31.471Z,1396
2018-05-27T05:02:40.334Z,1404
2018-05-27T05:03:49.532Z,1424
2018-05-27T05:04:58.686Z,1416
2018-05-27T05:06:07.546Z,1424
2018-05-27T05:07:16.407Z,1436
2018-05-27T05:08:25.270Z,1440
2018-05-27T05:09:34.161Z,1444
2018-05-27T05:10:43.355Z,1452
2018-05-27T05:11:52.218Z,1452
2018-05-27T05:13:01.367Z,1468
2018-05-27T05:14:10.235Z,1468
2018-05-27T05:15:19.375Z,1476
2018-05-27T05:16:28.239Z,1484
2018-05-27T05:17:37.657Z,1492
2018-05-27T05:18:46.519Z,1496
2018-05-27T05:19:55.383Z,1492
2018-05-27T05:21:04.253Z,1512
2018-05-27T05:22:13.738Z,1504
2018-05-27T05:23:22.585Z,1508
2018-05-27T05:24:31.450Z,1520
2018-05-27T05:25:40.317Z,1528
2018-05-27T05:26:49.458Z,1532
2018-05-27T05:27:58.370Z,1536
2018-05-27T05:29:07.231Z,1548
2018-05-27T05:30:16.096Z,1548
2018-05-27T05:31:24.955Z,1548
2018-05-27T05:32:33.819Z,1556
2018-05-27T05:33:42.687Z,1564
2018-05-27T05:34:52.116Z,1568
2018-05-27T05:36:01.260Z,1576
2018-05-27T05:37:10.400Z,1576
2018-05-27T05:38:19.264Z,1580
2018-05-27T05:39:28.124Z,1584
2018-05-27T05:40:37.267Z,1588
2018-05-27T05:41:46.130Z,1592
2018-05-27T05:42:55.274Z,1596
2018-05-27T05:44:04.141Z,1596
2018-05-27T05:45:13.009Z,1596
2018-05-27T05:46:21.875Z,1604
2018-05-27T05:47:30.742Z,1600
2018-05-27T05:48:39.605Z,1608
2018-05-27T05:49:48.750Z,1612
2018-05-27T05:50:57.893Z,1612
2018-05-27T05:52:06.758Z,1616
2018-05-27T05:53:15.622Z,1620
2018-05-27T05:54:24.483Z,1640
2018-05-27T05:55:33.347Z,1640
2018-05-27T05:56:42.211Z,1624
2018-05-27T05:57:51.079Z,1628
2018-05-27T05:59:00.492Z,1632
2018-05-27T06:00:09.637Z,1636
2018-05-27T06:01:18.798Z,1644
2018-05-27T06:02:27.663Z,1644
2018-05-27T06:03:36.524Z,1652
2018-05-27T06:04:45.388Z,1656
2018-05-27T06:05:54.252Z,1704
2018-05-27T06:07:03.113Z,1716
2018-05-27T06:08:11.976Z,1716
2018-05-27T06:09:20.838Z,1728
2018-05-27T06:10:29.706Z,1720
2018-05-27T06:11:38.848Z,1724
2018-05-27T06:12:48.270Z,1732
2018-05-27T06:13:57.411Z,1744
2018-05-27T06:15:06.277Z,1744
2018-05-27T06:16:15.137Z,1736
2018-05-27T06:17:24.277Z,1744
2018-05-27T06:18:33.139Z,1748
2018-05-27T06:19:42.267Z,1748
2018-05-27T06:20:51.018Z,1760
2018-05-27T06:21:59.880Z,1756
2018-05-27T06:23:08.742Z,1756
2018-05-27T06:24:17.620Z,1760
2018-05-27T06:25:26.488Z,1768
2018-05-27T06:26:35.910Z,1760
2018-05-27T06:27:44.774Z,1760
2018-05-27T06:28:53.917Z,1772
2018-05-27T06:30:02.783Z,1776
2018-05-27T06:31:11.650Z,1776
2018-05-27T06:32:20.512Z,1784
2018-05-27T06:33:29.376Z,1800
2018-05-27T06:34:38.299Z,1804
2018-05-27T06:35:47.167Z,1808
2018-05-27T06:36:56.041Z,1804
2018-05-27T06:38:04.900Z,1800
2018-05-27T06:39:13.764Z,1808
2018-05-27T06:40:22.624Z,1812
2018-05-27T06:41:31.490Z,1816
2018-05-27T06:42:40.354Z,1820
2018-05-27T06:43:49.223Z,1820
2018-05-27T06:44:58.087Z,1836
2018-05-27T06:46:07.230Z,1828
2018-05-27T06:47:16.096Z,1824
2018-05-27T06:48:24.965Z,1836
2018-05-27T06:49:34.106Z,1828
2018-05-27T06:50:42.970Z,1832
2018-05-27T06:51:51.836Z,1836
2018-05-27T06:53:00.702Z,1852
2018-05-27T06:54:09.841Z,1860
2018-05-27T06:55:18.703Z,1856
2018-05-27T06:56:27.568Z,1860
2018-05-27T06:57:36.709Z,1868
2018-05-27T06:58:45.570Z,1864
2018-05-27T06:59:54.435Z,1860
2018-05-27T07:01:03.573Z,1868
2018-05-27T07:02:12.438Z,1872
2018-05-27T07:03:21.306Z,1868
2018-05-27T07:04:31.251Z,1872
2018-05-27T07:05:40.668Z,1884
2018-05-27T07:06:49.531Z,1884
2018-05-27T07:07:58.397Z,1888
2018-05-27T07:09:07.271Z,1888
2018-05-27T07:10:16.406Z,1900
2018-05-27T07:11:25.571Z,1900
2018-05-27T07:12:34.434Z,1908
2018-05-27T07:13:43.299Z,1912
2018-05-27T07:14:52.447Z,1912
2018-05-27T07:16:01.317Z,1924
2018-05-27T07:17:10.565Z,1932
2018-05-27T07:18:19.653Z,1948
2018-05-27T07:19:28.518Z,1940
2018-05-27T07:20:37.382Z,1944
2018-05-27T07:21:46.252Z,1940
2018-05-27T07:22:55.402Z,1936
2018-05-27T07:24:04.267Z,1944
2018-05-27T07:25:13.132Z,1940
2018-05-27T07:26:21.997Z,1948
2018-05-27T07:27:30.862Z,1948
2018-05-27T07:28:40.006Z,1964
2018-05-27T07:29:48.869Z,1960
2018-05-27T07:30:57.736Z,1948
2018-05-27T07:32:06.642Z,1940
2018-05-27T07:33:15.812Z,1948
2018-05-27T07:34:24.675Z,1964
2018-05-27T07:35:33.542Z,1952
2018-05-27T07:36:42.410Z,1960
2018-05-27T07:37:51.552Z,1968
2018-05-27T07:39:00.415Z,1980
2018-05-27T07:40:09.562Z,1980
2018-05-27T07:41:18.713Z,1992
2018-05-27T07:42:27.853Z,1988
2018-05-27T07:43:37.287Z,2000
2018-05-27T07:44:46.147Z,1984
2018-05-27T07:45:55.013Z,1984
2018-05-27T07:47:03.876Z,1996
2018-05-27T07:48:12.749Z,2008
2018-05-27T07:49:21.891Z,2008
2018-05-27T07:50:30.758Z,2016
2018-05-27T07:51:39.626Z,2044
2018-05-27T07:52:48.810Z,2060
2018-05-27T07:53:57.677Z,2060
2018-05-27T07:55:06.542Z,2080
2018-05-27T07:56:15.691Z,2080
2018-05-27T07:57:24.846Z,2076
2018-05-27T07:58:34.274Z,2096
2018-05-27T07:59:43.080Z,2108
2018-05-27T08:00:51.946Z,2104
2018-05-27T08:02:00.810Z,2112
2018-05-27T08:03:10.009Z,2096
2018-05-27T08:04:18.877Z,2108
2018-05-27T08:05:27.739Z,2096
2018-05-27T08:06:36.603Z,2108
2018-05-27T08:07:45.467Z,2124
2018-05-27T08:08:54.336Z,2132
2018-05-27T08:10:03.208Z,2156
2018-05-27T08:11:12.354Z,2160
2018-05-27T08:12:21.215Z,2168
2018-05-27T08:13:30.081Z,2200
2018-05-27T08:14:38.945Z,2196
2018-05-27T08:15:48.093Z,2188
2018-05-27T08:16:56.955Z,2200
2018-05-27T08:18:06.383Z,2216
2018-05-27T08:19:15.248Z,2232
2018-05-27T08:20:24.163Z,2236
2018-05-27T08:21:33.246Z,2256
2018-05-27T08:22:42.121Z,2268
2018-05-27T08:23:51.278Z,2280
2018-05-27T08:25:00.208Z,2280
2018-05-27T08:26:09.358Z,2280
2018-05-27T08:27:18.221Z,2280
2018-05-27T08:28:27.088Z,2268
2018-05-27T08:29:35.955Z,2284
2018-05-27T08:30:44.820Z,2292
2018-05-27T08:31:53.689Z,2312
2018-05-27T08:33:02.828Z,2312
2018-05-27T08:34:11.703Z,2324
2018-05-27T08:35:20.573Z,2304
2018-05-27T08:36:29.438Z,2332
2018-05-27T08:37:38.311Z,2340
2018-05-27T08:38:47.460Z,2328
2018-05-27T08:39:56.605Z,2356
2018-05-27T08:41:05.747Z,2360
2018-05-27T08:42:14.612Z,2348
2018-05-27T08:43:23.535Z,2376
2018-05-27T08:44:32.624Z,2356
2018-05-27T08:45:41.490Z,2348
2018-05-27T08:46:50.909Z,2348
2018-05-27T08:48:00.061Z,2364
2018-05-27T08:49:08.935Z,2364
2018-05-27T08:50:17.798Z,2340
2018-05-27T08:51:26.665Z,2332
2018-05-27T08:52:35.537Z,2328
2018-05-27T08:53:44.400Z,2348
2018-05-27T08:54:53.316Z,2356
2018-05-27T08:56:02.183Z,2360
2018-05-27T08:57:11.054Z,2376
2018-05-27T08:58:19.921Z,2388
2018-05-27T08:59:28.790Z,2392
2018-05-27T09:00:37.657Z,2400
2018-05-27T09:01:46.527Z,2416
2018-05-27T09:02:55.396Z,2428
2018-05-27T09:04:04.259Z,2436
2018-05-27T09:05:13.126Z,2436
2018-05-27T09:06:22.272Z,2440
2018-05-27T09:07:31.414Z,2436
2018-05-27T09:08:40.277Z,2448
2018-05-27T09:09:49.144Z,2464
2018-05-27T09:10:58.010Z,2464
2018-05-27T09:12:06.874Z,2452
2018-05-27T09:13:15.741Z,2472
2018-05-27T09:14:24.609Z,2476
2018-05-27T09:15:33.476Z,2516
2018-05-27T09:16:42.622Z,2544
2018-05-27T09:17:51.487Z,2548
2018-05-27T09:19:00.355Z,2564
2018-05-27T09:20:09.224Z,2576
2018-05-27T09:21:18.372Z,2572
2018-05-27T09:22:27.237Z,2584
2018-05-27T09:23:36.387Z,2580
2018-05-27T09:24:45.577Z,2636
2018-05-27T09:25:54.406Z,2632
2018-05-27T09:27:03.273Z,2636
2018-05-27T09:28:12.424Z,2664
2018-05-27T09:29:21.624Z,2652
2018-05-27T09:30:30.489Z,2692
2018-05-27T09:31:39.637Z,2704
2018-05-27T09:32:49.057Z,2740
2018-05-27T09:33:57.926Z,2776
2018-05-27T09:35:06.792Z,2812
2018-05-27T09:36:15.943Z,2792
2018-05-27T09:37:24.814Z,2892
2018-05-27T09:38:33.679Z,2908
2018-05-27T09:39:42.550Z,2836
2018-05-27T09:40:51.980Z,2796
2018-05-27T09:42:00.852Z,2756
2018-05-27T09:43:09.721Z,2784
2018-05-27T09:44:18.590Z,2812
2018-05-27T09:45:27.870Z,2844
2018-05-27T09:46:36.725Z,2848
2018-05-27T09:47:45.594Z,2860
2018-05-27T09:48:55.023Z,2940
2018-05-27T09:50:04.173Z,3000
2018-05-27T09:51:13.402Z,2996
2018-05-27T09:52:22.266Z,3000
2018-05-27T09:53:31.137Z,2992
2018-05-27T09:54:40.008Z,2976
2018-05-27T09:55:48.872Z,2964
2018-05-27T09:56:58.031Z,2952
2018-05-27T09:58:06.918Z,2968
2018-05-27T09:59:15.785Z,2976
2018-05-27T10:00:24.705Z,3000
2018-05-27T10:01:33.854Z,3000
2018-05-27T10:02:42.721Z,3016
2018-05-27T10:03:51.641Z,3004
2018-05-27T10:05:00.508Z,3044
2018-05-27T10:06:09.654Z,3060
2018-05-27T10:07:18.521Z,3020
2018-05-27T10:08:27.399Z,3004
2018-05-27T10:09:36.266Z,2988
2018-05-27T10:10:45.420Z,3072
2018-05-27T10:11:54.639Z,3124
2018-05-27T10:13:03.507Z,3156
2018-05-27T10:14:12.662Z,3140
2018-05-27T10:15:21.528Z,3160
2018-05-27T10:16:30.719Z,3200
2018-05-27T10:17:39.655Z,3196
2018-05-27T10:18:48.520Z,3188
2018-05-27T10:19:57.674Z,3152
2018-05-27T10:21:06.601Z,3188
2018-05-27T10:22:15.747Z,3260
2018-05-27T10:23:24.615Z,3296
2018-05-27T10:24:33.483Z,3312
2018-05-27T10:25:42.349Z,3356
2018-05-27T10:26:51.494Z,3348
2018-05-27T10:28:00.637Z,3340
2018-05-27T10:29:09.781Z,3356
2018-05-27T10:30:18.651Z,3356
2018-05-27T10:31:27.520Z,3424
2018-05-27T10:32:36.384Z,3456
2018-05-27T10:33:45.253Z,3500
2018-05-27T10:34:54.120Z,3496
2018-05-27T10:36:02.988Z,3556
2018-05-27T10:37:12.142Z,3580
2018-05-27T10:38:21.099Z,3560
2018-05-27T10:39:30.255Z,3608
2018-05-27T10:40:39.123Z,3596
2018-05-27T10:41:47.995Z,3524
2018-05-27T10:42:56.863Z,3520
2018-05-27T10:44:05.734Z,3592
2018-05-27T10:45:14.891Z,3680
2018-05-27T10:46:24.036Z,3700
2018-05-27T10:47:33.184Z,3744
2018-05-27T10:48:42.328Z,3724
2018-05-27T10:49:51.195Z,3608
2018-05-27T10:51:00.067Z,3528
2018-05-27T10:52:08.999Z,3524
2018-05-27T10:53:18.153Z,3604
2018-05-27T10:54:27.300Z,3676
2018-05-27T10:55:36.169Z,3652
2018-05-27T10:56:45.035Z,3608
2018-05-27T10:57:53.901Z,3580
2018-05-27T10:59:02.773Z,3600
2018-05-27T11:00:11.924Z,3652
2018-05-27T11:01:20.865Z,3692
2018-05-27T11:02:29.730Z,3744
2018-05-27T11:03:38.874Z,3760
2018-05-27T11:04:47.743Z,3752
2018-05-27T11:05:56.631Z,3784
2018-05-27T11:07:05.666Z,3828
2018-05-27T11:08:14.649Z,3848
2018-05-27T11:09:23.808Z,3916
2018-05-27T11:10:32.952Z,3956
2018-05-27T11:11:41.822Z,3924
2018-05-27T11:12:50.741Z,3860
2018-05-27T11:13:59.888Z,3832
2018-05-27T11:15:08.756Z,3800
2018-05-27T11:16:17.624Z,3784
2018-05-27T11:17:26.771Z,3824
2018-05-27T11:18:35.639Z,3908
2018-05-27T11:19:44.508Z,3888
2018-05-27T11:20:53.385Z,3856
2018-05-27T11:22:02.532Z,3816
2018-05-27T11:23:11.402Z,3800
2018-05-27T11:24:20.269Z,4420
2018-05-27T11:25:29.140Z,4412
2018-05-27T11:26:38.008Z,4444
2018-05-27T11:27:46.877Z,4516
2018-05-27T11:28:55.747Z,4552
2018-05-27T11:30:04.668Z,4596
2018-05-27T11:31:13.544Z,4612
2018-05-27T11:32:22.969Z,4632
2018-05-27T11:33:31.838Z,4672
2018-05-27T11:34:40.709Z,4732
2018-05-27T11:35:49.578Z,4760
2018-05-27T11:36:58.507Z,4748
2018-05-27T11:38:07.323Z,4748
2018-05-27T11:39:16.191Z,4788
2018-05-27T11:40:25.337Z,4856
2018-05-27T11:41:34.205Z,4912
2018-05-27T11:42:43.080Z,5004
2018-05-27T11:43:51.950Z,5168
2018-05-27T11:45:00.818Z,5372
2018-05-27T11:46:09.962Z,5588
2018-05-27T11:47:18.889Z,5796
2018-05-27T11:48:27.758Z,6024
2018-05-27T11:49:36.625Z,6284
2018-05-27T11:50:45.495Z,6700
2018-05-27T11:51:54.644Z,7792
2018-05-27T11:53:03.518Z,37376
2018-05-27T11:54:12.725Z,76032
2018-05-27T11:55:21.557Z,75424
2018-05-27T11:56:30.425Z,76608
2018-05-27T11:57:39.297Z,76928
2018-05-27T11:58:48.167Z,76480
2018-05-27T11:59:57.037Z,76928
2018-05-27T12:01:05.912Z,80416
2018-05-27T12:02:14.784Z,77888
2018-05-27T12:03:23.943Z,68448
2018-05-27T12:04:32.825Z,73120
2018-05-27T12:05:42.258Z,77888
2018-05-27T12:06:51.414Z,73792
2018-05-27T12:08:00.562Z,70048
2018-05-27T12:09:10.362Z,76448
2018-05-27T12:10:19.990Z,74464
2018-05-27T12:11:29.425Z,74528
2018-05-27T12:12:38.578Z,80032
2018-05-27T12:13:47.450Z,85120
2018-05-27T12:14:56.331Z,79008
2018-05-27T12:16:05.210Z,75136
2018-05-27T12:17:14.089Z,78240
2018-05-27T12:18:22.973Z,84768
2018-05-27T12:19:32.125Z,89312
2018-05-27T12:20:41.004Z,84224
2018-05-27T12:21:49.879Z,77152
2018-05-27T12:22:59.035Z,79840
2018-05-27T12:24:08.291Z,79488
2018-05-27T12:25:17.101Z,79296
2018-05-27T12:26:25.979Z,77920
2018-05-27T12:27:34.863Z,81536
2018-05-27T12:28:43.736Z,84736
2018-05-27T12:29:53.068Z,81248
2018-05-27T12:31:01.874Z,78112
2018-05-27T12:32:10.753Z,75552
2018-05-27T12:33:19.633Z,75040
2018-05-27T12:34:28.788Z,74176
2018-05-27T12:35:37.716Z,74176
2018-05-27T12:36:46.879Z,70912
2018-05-27T12:37:55.869Z,93408
2018-05-27T12:39:05.249Z,88800
2018-05-27T12:40:14.126Z,90112
2018-05-27T12:41:23.004Z,82784
2018-05-27T12:42:31.884Z,81248
2018-05-27T12:43:40.771Z,86272
2018-05-27T12:44:49.645Z,84352
2018-05-27T12:45:58.522Z,69024
2018-05-27T12:47:07.405Z,61056
2018-05-27T12:48:16.564Z,56672
2018-05-27T12:49:25.460Z,65280
2018-05-27T12:50:34.323Z,50720
2018-05-27T12:51:43.214Z,52416
2018-05-27T12:52:52.085Z,59872
2018-05-27T12:54:00.964Z,49952
2018-05-27T12:55:09.855Z,50944
2018-05-27T12:56:19.014Z,54208
2018-05-27T12:57:27.890Z,57920
2018-05-27T12:58:37.336Z,65792
2018-05-27T12:59:46.220Z,66208
2018-05-27T13:00:55.659Z,69376
2018-05-27T13:02:04.823Z,76864
2018-05-27T13:03:13.703Z,87424
2018-05-27T13:04:22.585Z,86976
2018-05-27T13:05:31.470Z,82848
2018-05-27T13:06:40.350Z,81600
2018-05-27T13:07:49.231Z,79232
2018-05-27T13:08:58.111Z,81216
2018-05-27T13:10:06.998Z,90048
2018-05-27T13:11:15.880Z,88256
2018-05-27T13:12:25.055Z,82368
2018-05-27T13:13:33.938Z,83328
2018-05-27T13:14:42.819Z,84512
2018-05-27T13:15:51.703Z,84480
2018-05-27T13:17:01.943Z,76800
2018-05-27T13:18:11.410Z,77728
2018-05-27T13:19:20.296Z,82400
2018-05-27T13:20:29.461Z,82016
2018-05-27T13:21:38.343Z,79104
2018-05-27T13:22:47.227Z,79776
2018-05-27T13:23:56.108Z,87136
2018-05-27T13:25:04.991Z,91008
2018-05-27T13:26:13.875Z,92000
2018-05-27T13:27:22.759Z,82656
2018-05-27T13:28:31.641Z,79296
2018-05-27T13:29:40.530Z,89472
2018-05-27T13:30:49.738Z,86720
2018-05-27T13:31:58.672Z,82304
2018-05-27T13:33:07.834Z,85312
2018-05-27T13:34:16.720Z,86816
2018-05-27T13:35:25.607Z,90976
2018-05-27T13:36:34.490Z,85728
2018-05-27T13:37:43.374Z,82464
2018-05-27T13:38:52.534Z,82304
2018-05-27T13:40:01.422Z,77696
2018-05-27T13:41:10.308Z,83168
2018-05-27T13:42:19.189Z,87552
2018-05-27T13:43:28.074Z,82112
2018-05-27T13:44:36.959Z,79136
2018-05-27T13:45:45.854Z,75840
2018-05-27T13:46:54.813Z,74784
2018-05-27T13:48:03.689Z,79232
2018-05-27T13:49:12.952Z,81696
2018-05-27T13:50:22.409Z,76352
2018-05-27T13:51:31.292Z,73600
2018-05-27T13:52:40.176Z,74720
2018-05-27T13:53:49.062Z,79872
2018-05-27T13:54:58.227Z,76480
2018-05-27T13:56:07.108Z,77440
2018-05-27T13:57:16.001Z,84736
2018-05-27T13:58:25.156Z,86336
2018-05-27T13:59:34.048Z,84800
2018-05-27T14:00:42.935Z,82944
2018-05-27T14:01:52.095Z,83616
2018-05-27T14:03:00.978Z,85152
2018-05-27T14:04:09.861Z,82624
2018-05-27T14:05:19.027Z,85216
2018-05-27T14:06:28.468Z,88032
2018-05-27T14:07:37.352Z,89088
2018-05-27T14:08:46.241Z,84928
2018-05-27T14:09:55.130Z,78016
2018-05-27T14:11:04.014Z,78912
2018-05-27T14:12:12.897Z,81120
2018-05-27T14:13:21.781Z,82208
2018-05-27T14:14:30.951Z,81504
2018-05-27T14:15:40.114Z,83040
2018-05-27T14:16:48.998Z,82624
2018-05-27T14:17:57.883Z,78368
2018-05-27T14:19:06.768Z,75904
2018-05-27T14:20:15.652Z,67392
2018-05-27T14:21:24.537Z,68192
2018-05-27T14:22:33.803Z,77472
2018-05-27T14:23:42.687Z,80928
2018-05-27T14:24:51.574Z,78624
2018-05-27T14:26:00.767Z,76576
2018-05-27T14:27:09.902Z,76800
2018-05-27T14:28:18.790Z,78464
2018-05-27T14:29:28.473Z,75328
2018-05-27T14:30:37.693Z,73024
2018-05-27T14:31:46.933Z,72480
2018-05-27T14:32:55.818Z,75104
2018-05-27T14:34:04.703Z,73728
2018-05-27T14:35:13.587Z,73536
2018-05-27T14:36:22.486Z,77504
2018-05-27T14:37:31.650Z,78336
2018-05-27T14:38:40.535Z,78048
2018-05-27T14:39:49.420Z,71616
2018-05-27T14:40:58.584Z,71936
2018-05-27T14:42:07.473Z,77120
2018-05-27T14:43:16.373Z,81568
2018-05-27T14:44:25.277Z,81376
2018-05-27T14:45:34.145Z,54912
2018-05-27T14:46:43.032Z,10532
2018-05-27T14:47:51.917Z,60672
2018-05-27T14:49:03.121Z,38880
2018-05-27T14:50:13.249Z,78240
2018-05-27T14:51:22.134Z,78720
2018-05-27T14:52:31.018Z,80512
2018-05-27T14:53:43.150Z,80672
2018-05-27T14:54:56.445Z,77664
2018-05-27T14:56:09.773Z,75648
2018-05-27T14:57:22.165Z,77088
2018-05-27T14:58:31.917Z,23008
2018-05-27T14:59:40.804Z,11300
2018-05-27T15:00:49.791Z,27328
2018-05-27T15:01:58.676Z,27456
2018-05-27T15:03:08.115Z,44736
2018-05-27T15:04:20.564Z,76352
2018-05-27T15:05:33.263Z,78752
2018-05-27T15:06:46.266Z,76352
2018-05-27T15:07:58.847Z,76960
2018-05-27T15:09:09.170Z,74880
2018-05-27T15:10:18.338Z,65824
2018-05-27T15:11:27.220Z,75808
2018-05-27T15:12:36.102Z,76096
2018-05-27T15:13:44.999Z,72256
2018-05-27T15:14:54.215Z,69568
2018-05-27T15:16:03.090Z,74208
2018-05-27T15:17:11.976Z,76512
2018-05-27T15:18:21.148Z,73056
2018-05-27T15:19:30.361Z,70912
2018-05-27T15:20:39.530Z,70944
2018-05-27T15:21:48.693Z,72064
2018-05-27T15:22:57.577Z,72544
2018-05-27T15:24:06.460Z,68640
2018-05-27T15:25:15.368Z,67552
2018-05-27T15:26:24.504Z,71040
2018-05-27T15:27:33.385Z,70208
2018-05-27T15:28:42.268Z,69440
2018-05-27T15:29:51.149Z,69440
2018-05-27T15:31:00.312Z,72544